createdAt,value
2018-06-08T00:01:11.170Z,7.40
2018-06-08T00:03:38.785Z,9.53
2018-06-08T00:06:06.392Z,9.57
2018-06-08T00:08:33.986Z,8.97
2018-06-08T00:11:01.585Z,9.53
2018-06-08T00:13:29.338Z,9.50
2018-06-08T00:15:56.933Z,9.70
2018-06-08T00:18:24.531Z,8.40
2018-06-08T00:20:52.117Z,9.23
2018-06-08T00:23:19.712Z,9.10
2018-06-08T00:25:47.278Z,9.80
2018-06-08T00:28:14.856Z,9.87
2018-06-08T00:30:42.441Z,8.77
2018-06-08T00:33:10.022Z,8.23
2018-06-08T00:35:37.612Z,7.93
2018-06-08T00:38:05.438Z,9.20
2018-06-08T00:40:33.032Z,9.83
2018-06-08T00:43:00.597Z,8.07
2018-06-08T00:45:28.278Z,9.50
2018-06-08T00:47:55.862Z,8.97
2018-06-08T00:50:23.448Z,9.67
2018-06-08T00:52:51.046Z,8.93
2018-06-08T00:55:18.710Z,12.63
2018-06-08T00:57:46.269Z,8.90
2018-06-08T01:00:13.874Z,8.80
2018-06-08T01:02:41.477Z,10.47
2018-06-08T01:05:09.039Z,9.83
2018-06-08T01:07:36.640Z,9.57
2018-06-08T01:10:04.285Z,9.70
2018-06-08T01:12:31.866Z,9.97
2018-06-08T01:14:59.506Z,11.17
2018-06-08T01:17:27.096Z,9.53
2018-06-08T01:19:55.229Z,10.30
2018-06-08T01:22:22.836Z,9.20
2018-06-08T01:24:50.427Z,9.33
2018-06-08T01:27:18.050Z,11.87
2018-06-08T01:29:45.633Z,9.87
2018-06-08T01:32:13.214Z,8.80
2018-06-08T01:34:40.819Z,8.80
2018-06-08T01:37:08.425Z,10.53
2018-06-08T01:39:36.025Z,11.47
2018-06-08T01:42:03.641Z,13.93
2018-06-08T01:44:31.249Z,9.07
2018-06-08T01:46:58.813Z,9.80
2018-06-08T01:49:26.402Z,13.30
2018-06-08T01:51:53.975Z,10.47
2018-06-08T01:54:21.592Z,15.60
2018-06-08T01:56:49.190Z,11.83
2018-06-08T01:59:16.790Z,16.47
2018-06-08T02:01:44.383Z,11.87
2018-06-08T02:04:11.999Z,10.33
2018-06-08T02:06:39.596Z,16.23
2018-06-08T02:09:07.529Z,10.23
2018-06-08T02:11:35.189Z,9.83
2018-06-08T02:14:02.785Z,10.20
2018-06-08T02:16:30.353Z,10.77
2018-06-08T02:18:57.901Z,9.47
2018-06-08T02:21:25.500Z,10.80
2018-06-08T02:23:53.085Z,12.83
2018-06-08T02:26:20.717Z,11.30
2018-06-08T02:28:48.327Z,11.33
2018-06-08T02:31:15.916Z,12.93
2018-06-08T02:33:43.544Z,10.93
2018-06-08T02:36:11.134Z,10.80
2018-06-08T02:38:38.709Z,9.70
2018-06-08T02:41:06.368Z,10.30
2018-06-08T02:43:33.975Z,10.83
2018-06-08T02:46:01.612Z,14.97
2018-06-08T02:48:29.216Z,12.03
2018-06-08T02:50:56.816Z,12.33
2018-06-08T02:53:24.438Z,12.43
2018-06-08T02:55:52.041Z,11.97
2018-06-08T02:58:19.642Z,11.53
2018-06-08T03:00:47.254Z,14.33
2018-06-08T03:03:14.883Z,14.20
2018-06-08T03:05:42.521Z,11.57
2018-06-08T03:08:10.113Z,11.90
2018-06-08T03:10:37.699Z,15.27
2018-06-08T03:13:05.308Z,12.63
2018-06-08T03:15:32.901Z,15.70
2018-06-08T03:18:00.504Z,13.90
2018-06-08T03:20:28.094Z,11.30
2018-06-08T03:22:55.674Z,11.77
2018-06-08T03:25:23.255Z,11.53
2018-06-08T03:27:50.832Z,14.27
2018-06-08T03:30:18.435Z,12.37
2018-06-08T03:32:46.053Z,14.50
2018-06-08T03:35:13.704Z,11.43
2018-06-08T03:37:41.294Z,12.43
2018-06-08T03:40:08.879Z,13.97
2018-06-08T03:42:36.460Z,12.90
2018-06-08T03:45:04.091Z,11.70
2018-06-08T03:47:31.675Z,12.43
2018-06-08T03:49:59.315Z,12.13
2018-06-08T03:52:26.897Z,13.90
2018-06-08T03:54:54.496Z,12.80
2018-06-08T03:57:22.122Z,12.87
2018-06-08T03:59:49.721Z,13.67
2018-06-08T04:02:17.321Z,12.90
2018-06-08T04:04:44.932Z,15.93
2018-06-08T04:07:12.533Z,14.60
2018-06-08T04:09:40.108Z,13.47
2018-06-08T04:12:07.697Z,12.87
2018-06-08T04:14:35.303Z,15.07
2018-06-08T04:17:02.883Z,13.50
2018-06-08T04:19:30.497Z,14.70
2018-06-08T04:21:58.101Z,13.23
2018-06-08T04:24:25.714Z,15.60
2018-06-08T04:26:53.316Z,20.37
2018-06-08T04:29:21.001Z,16.30
2018-06-08T04:31:48.627Z,14.97
2018-06-08T04:34:16.239Z,13.97
2018-06-08T04:36:43.834Z,17.93
2018-06-08T04:39:11.439Z,15.30
2018-06-08T04:41:39.058Z,15.33
2018-06-08T04:44:06.646Z,16.20
2018-06-08T04:46:34.251Z,15.07
2018-06-08T04:49:01.877Z,17.70
2018-06-08T04:51:29.480Z,14.90
2018-06-08T04:53:57.082Z,14.37
2018-06-08T04:56:24.673Z,14.90
2018-06-08T04:58:52.294Z,16.70
2018-06-08T05:01:19.926Z,17.17
2018-06-08T05:03:47.545Z,15.90
2018-06-08T05:06:15.200Z,16.13
2018-06-08T05:08:42.797Z,20.00
2018-06-08T05:11:10.415Z,14.97
2018-06-08T05:13:38.025Z,17.33
2018-06-08T05:16:05.612Z,16.00
2018-06-08T05:18:33.226Z,17.17
2018-06-08T05:21:00.844Z,18.37
2018-06-08T05:23:28.443Z,19.80
2018-06-08T05:25:56.059Z,18.30
2018-06-08T05:28:23.701Z,17.97
2018-06-08T05:30:51.274Z,16.67
2018-06-08T05:33:18.872Z,20.60
2018-06-08T05:35:46.478Z,15.83
2018-06-08T05:38:14.078Z,18.97
2018-06-08T05:40:41.708Z,19.47
2018-06-08T05:43:09.351Z,17.63
2018-06-08T05:45:36.953Z,17.27
2018-06-08T05:48:04.621Z,16.17
2018-06-08T05:50:32.219Z,17.93
2018-06-08T05:52:59.816Z,17.97
2018-06-08T05:55:27.428Z,16.40
2018-06-08T05:57:55.056Z,16.60
2018-06-08T06:00:22.758Z,17.37
2018-06-08T06:02:50.384Z,17.50
2018-06-08T06:05:17.990Z,15.20
2018-06-08T06:07:45.627Z,16.47
2018-06-08T06:10:13.250Z,16.40
2018-06-08T06:12:40.879Z,13.60
2018-06-08T06:15:08.590Z,14.90
2018-06-08T06:17:36.137Z,18.60
2018-06-08T06:20:03.794Z,14.53
2018-06-08T06:22:31.373Z,14.37
2018-06-08T06:24:58.951Z,14.73
2018-06-08T06:27:26.511Z,14.07
2018-06-08T06:29:54.133Z,14.23
2018-06-08T06:32:21.785Z,13.70
2018-06-08T06:34:49.345Z,15.57
2018-06-08T06:37:16.916Z,13.07
2018-06-08T06:39:44.509Z,12.90
2018-06-08T06:42:12.724Z,12.40
2018-06-08T06:44:40.305Z,13.50
2018-06-08T06:47:07.897Z,14.37
2018-06-08T06:49:35.474Z,13.60
2018-06-08T06:52:03.276Z,15.30
2018-06-08T06:54:30.862Z,14.37
2018-06-08T06:56:58.445Z,14.13
2018-06-08T06:59:26.009Z,16.13
2018-06-08T07:01:53.564Z,13.30
2018-06-08T07:04:21.189Z,15.80
2018-06-08T07:06:48.980Z,13.30
2018-06-08T07:09:16.825Z,12.83
2018-06-08T07:11:44.389Z,13.17
2018-06-08T07:14:12.005Z,18.57
2018-06-08T07:16:39.608Z,18.60
2018-06-08T07:19:07.222Z,14.40
2018-06-08T07:21:34.837Z,16.50
2018-06-08T07:24:02.447Z,14.57
2018-06-08T07:26:30.061Z,15.97
2018-06-08T07:28:57.870Z,20.90
2018-06-08T07:31:25.856Z,18.20
2018-06-08T07:33:53.720Z,18.10
2018-06-08T07:36:21.289Z,20.53
2018-06-08T07:38:48.870Z,14.90
2018-06-08T07:41:16.618Z,17.80
2018-06-08T07:43:44.167Z,21.33
2018-06-08T07:46:11.821Z,18.67
2018-06-08T07:48:39.398Z,22.10
2018-06-08T07:51:06.973Z,20.70
2018-06-08T07:53:34.528Z,18.00
2018-06-08T07:56:02.186Z,15.60
2018-06-08T07:58:29.797Z,18.80
2018-06-08T08:00:57.348Z,18.00
2018-06-08T08:03:24.947Z,15.33
2018-06-08T08:05:52.535Z,17.80
2018-06-08T08:08:20.119Z,16.67
2018-06-08T08:10:47.647Z,15.23
2018-06-08T08:13:15.154Z,20.00
2018-06-08T08:15:42.663Z,14.17
2018-06-08T08:18:10.208Z,17.80
2018-06-08T08:20:37.749Z,15.20
2018-06-08T08:23:05.283Z,14.97
2018-06-08T08:25:32.784Z,18.60
2018-06-08T08:28:00.318Z,15.83
2018-06-08T08:30:27.827Z,15.77
2018-06-08T08:32:55.371Z,15.27
2018-06-08T08:35:22.896Z,15.63
2018-06-08T08:37:50.404Z,18.07
2018-06-08T08:40:17.906Z,13.73
2018-06-08T08:42:45.447Z,14.63
2018-06-08T08:45:13.000Z,11.80
2018-06-08T08:47:40.513Z,12.33
2018-06-08T08:50:08.035Z,13.93
2018-06-08T08:52:35.545Z,12.63
2018-06-08T08:55:03.083Z,14.47
2018-06-08T08:57:30.596Z,10.23
2018-06-08T08:59:58.608Z,12.10
2018-06-08T09:02:26.165Z,13.53
2018-06-08T09:04:53.734Z,10.43
2018-06-08T09:07:21.309Z,14.10
2018-06-08T09:09:48.841Z,13.47
2018-06-08T09:12:16.619Z,11.20
2018-06-08T09:14:44.117Z,11.23
2018-06-08T09:17:11.647Z,11.93
2018-06-08T09:19:39.148Z,8.80
2018-06-08T09:22:06.667Z,11.13
2018-06-08T09:24:34.161Z,10.43
2018-06-08T09:27:01.695Z,11.17
2018-06-08T09:29:29.227Z,14.90
2018-06-08T09:31:56.710Z,12.50
2018-06-08T09:34:24.206Z,19.50
2018-06-08T09:36:51.724Z,11.23
2018-06-08T09:39:19.236Z,9.80
2018-06-08T09:41:46.760Z,9.90
2018-06-08T09:44:14.308Z,10.47
2018-06-08T09:46:41.801Z,12.00
2018-06-08T09:49:09.365Z,10.07
2018-06-08T09:51:36.918Z,11.07
2018-06-08T09:54:04.461Z,10.37
2018-06-08T09:56:31.990Z,9.50
2018-06-08T09:58:59.545Z,18.00
2018-06-08T10:01:27.092Z,9.50
2018-06-08T10:03:54.619Z,12.47
2018-06-08T10:06:22.153Z,9.80
2018-06-08T10:08:49.659Z,9.23
2018-06-08T10:11:17.356Z,9.10
2018-06-08T10:13:44.897Z,10.97
2018-06-08T10:16:12.482Z,12.47
2018-06-08T10:18:40.090Z,9.90
2018-06-08T10:21:07.599Z,8.53
2018-06-08T10:23:35.134Z,9.40
2018-06-08T10:26:02.655Z,13.47
2018-06-08T10:28:30.158Z,7.90
2018-06-08T10:30:57.661Z,9.30
2018-06-08T10:33:25.158Z,7.70
2018-06-08T10:35:52.673Z,9.30
2018-06-08T10:38:20.238Z,10.87
2018-06-08T10:40:47.757Z,9.13
2018-06-08T10:43:15.293Z,8.77
2018-06-08T10:45:42.803Z,8.17
2018-06-08T10:48:10.362Z,17.67
2018-06-08T10:50:37.880Z,9.47
2018-06-08T10:53:05.513Z,9.43
2018-06-08T10:55:33.033Z,11.20
2018-06-08T10:58:00.564Z,11.63
2018-06-08T11:00:28.092Z,11.10
2018-06-08T11:02:55.606Z,11.03
2018-06-08T11:05:23.167Z,11.20
2018-06-08T11:07:50.707Z,9.80
2018-06-08T11:10:18.220Z,10.40
2018-06-08T11:12:45.720Z,9.50
2018-06-08T11:15:13.239Z,10.77
2018-06-08T11:17:40.748Z,10.60
2018-06-08T11:20:08.438Z,9.43
2018-06-08T11:22:35.992Z,11.07
2018-06-08T11:25:03.560Z,10.27
2018-06-08T11:27:31.081Z,11.67
2018-06-08T11:29:58.645Z,9.73
2018-06-08T11:32:26.165Z,10.17
2018-06-08T11:34:53.713Z,11.53
2018-06-08T11:37:21.271Z,9.37
2018-06-08T11:39:50.063Z,14.10
2018-06-08T11:42:17.652Z,9.13
2018-06-08T11:44:45.184Z,8.67
2018-06-08T11:47:12.678Z,9.63
2018-06-08T11:49:40.207Z,12.20
2018-06-08T11:52:07.706Z,9.63
2018-06-08T11:54:35.392Z,12.63
2018-06-08T11:57:02.995Z,8.93
2018-06-08T11:59:30.493Z,8.57
2018-06-08T12:01:58.080Z,8.57
2018-06-08T12:04:25.623Z,9.20
2018-06-08T12:06:53.147Z,9.70
2018-06-08T12:09:20.642Z,7.70
2018-06-08T12:11:48.138Z,11.27
2018-06-08T12:14:15.648Z,7.30
2018-06-08T12:16:43.158Z,8.17
2018-06-08T12:19:10.669Z,7.37
2018-06-08T12:21:38.286Z,7.90
2018-06-08T12:24:05.904Z,12.00
2018-06-08T12:26:33.454Z,8.40
2018-06-08T12:29:01.032Z,8.07
2018-06-08T12:31:28.623Z,7.50
2018-06-08T12:33:56.234Z,8.07
2018-06-08T12:36:23.805Z,8.30
2018-06-08T12:38:51.400Z,8.83
2018-06-08T12:41:19.041Z,10.40
2018-06-08T12:43:46.612Z,6.93
2018-06-08T12:46:14.202Z,7.07
2018-06-08T12:48:41.791Z,9.63
2018-06-08T12:51:10.267Z,8.10
2018-06-08T12:53:37.845Z,8.40
2018-06-08T12:56:05.469Z,10.13
2018-06-08T12:58:33.061Z,12.80
2018-06-08T13:01:00.660Z,7.60
2018-06-08T13:03:28.275Z,8.00
2018-06-08T13:05:55.891Z,8.70
2018-06-08T13:08:23.490Z,8.43
2018-06-08T13:10:51.314Z,10.63
2018-06-08T13:13:19.578Z,6.97
2018-06-08T13:15:48.283Z,7.67
2018-06-08T13:18:15.911Z,6.63
2018-06-08T13:20:43.519Z,6.70
2018-06-08T13:23:11.078Z,10.00
2018-06-08T13:25:38.677Z,7.03
2018-06-08T13:28:06.267Z,7.03
2018-06-08T13:30:33.829Z,8.90
2018-06-08T13:33:01.412Z,6.50
2018-06-08T13:35:29.020Z,6.93
2018-06-08T13:37:56.589Z,7.13
2018-06-08T13:40:25.194Z,7.40
2018-06-08T13:42:52.789Z,6.93
2018-06-08T13:45:20.380Z,8.27
2018-06-08T13:47:47.933Z,6.33
2018-06-08T13:50:15.513Z,6.70
2018-06-08T13:52:43.526Z,6.83
2018-06-08T13:55:11.145Z,7.53
2018-06-08T13:57:39.859Z,6.87
2018-06-08T14:00:07.691Z,9.13
2018-06-08T14:02:36.456Z,5.80
2018-06-08T14:05:04.088Z,6.50
2018-06-08T14:07:33.108Z,8.97
2018-06-08T14:10:01.078Z,7.30
2018-06-08T14:12:30.554Z,10.70
2018-06-08T14:15:00.619Z,7.00
2018-06-08T14:17:29.724Z,7.43
2018-06-08T14:19:59.176Z,10.43
2018-06-08T14:22:29.813Z,6.93
2018-06-08T14:24:59.114Z,6.90
2018-06-08T14:27:28.830Z,8.57
2018-06-08T14:29:56.422Z,8.00
2018-06-08T14:32:23.994Z,7.53
2018-06-08T14:34:51.561Z,10.40
2018-06-08T14:37:19.112Z,7.60
2018-06-08T14:39:46.665Z,8.23
2018-06-08T14:42:14.227Z,7.27
2018-06-08T14:44:41.848Z,7.93
2018-06-08T14:47:09.421Z,7.83
2018-06-08T14:49:37.033Z,7.90
2018-06-08T14:52:04.652Z,8.07
2018-06-08T14:54:32.244Z,10.10
2018-06-08T14:56:59.811Z,8.57
2018-06-08T14:59:27.398Z,9.00
2018-06-08T15:01:55.019Z,10.07
2018-06-08T15:04:22.608Z,9.03
2018-06-08T15:06:50.190Z,8.30
2018-06-08T15:09:17.777Z,9.00
2018-06-08T15:11:45.393Z,8.70
2018-06-08T15:14:13.004Z,10.37
2018-06-08T15:16:40.613Z,9.27
2018-06-08T15:19:08.206Z,9.90
2018-06-08T15:21:35.777Z,10.03
2018-06-08T15:24:03.319Z,9.10
2018-06-08T15:26:30.891Z,9.20
2018-06-08T15:28:58.530Z,9.47
2018-06-08T15:31:26.137Z,10.43
2018-06-08T15:33:53.760Z,10.07
2018-06-08T15:36:21.324Z,13.63
2018-06-08T15:38:48.962Z,9.97
2018-06-08T15:41:16.622Z,9.73
2018-06-08T15:43:44.177Z,10.20
2018-06-08T15:46:11.741Z,9.67
2018-06-08T15:48:39.362Z,10.10
2018-06-08T15:51:06.936Z,9.20
2018-06-08T15:53:34.598Z,11.07
2018-06-08T15:56:02.228Z,12.23
2018-06-08T15:58:29.827Z,11.83
2018-06-08T16:00:57.449Z,14.13
2018-06-08T16:03:25.052Z,11.70
2018-06-08T16:05:52.696Z,11.87
2018-06-08T16:08:20.304Z,16.33
2018-06-08T16:10:47.900Z,14.33
2018-06-08T16:13:15.496Z,12.43
2018-06-08T16:15:43.102Z,15.63
2018-06-08T16:18:10.698Z,15.23
2018-06-08T16:20:38.376Z,13.80
2018-06-08T16:23:05.936Z,13.63
2018-06-08T16:25:33.508Z,15.93
2018-06-08T16:28:01.096Z,13.00
2018-06-08T16:30:28.681Z,14.20
2018-06-08T16:32:56.283Z,15.47
2018-06-08T16:35:23.960Z,18.60
2018-06-08T16:37:51.610Z,14.40
2018-06-08T16:40:19.232Z,13.67
2018-06-08T16:42:46.835Z,16.30
2018-06-08T16:45:14.425Z,13.33
2018-06-08T16:47:42.025Z,15.23
2018-06-08T16:50:09.616Z,13.37
2018-06-08T16:52:37.270Z,12.83
2018-06-08T16:55:04.915Z,13.23
2018-06-08T16:57:33.708Z,13.07
2018-06-08T17:00:01.730Z,15.30
2018-06-08T17:02:29.359Z,16.83
2018-06-08T17:04:56.953Z,13.83
2018-06-08T17:07:24.568Z,12.63
2018-06-08T17:09:52.192Z,19.67
2018-06-08T17:12:19.800Z,13.97
2018-06-08T17:14:47.380Z,14.20
2018-06-08T17:17:14.988Z,13.53
2018-06-08T17:19:42.589Z,21.60
2018-06-08T17:22:10.204Z,13.97
2018-06-08T17:24:37.821Z,13.63
2018-06-08T17:27:05.749Z,15.10
2018-06-08T17:29:33.353Z,16.37
2018-06-08T17:32:00.939Z,17.80
2018-06-08T17:34:28.561Z,14.73
2018-06-08T17:36:56.272Z,15.17
2018-06-08T17:39:23.894Z,20.50
2018-06-08T17:41:51.491Z,13.43
2018-06-08T17:44:19.090Z,12.17
2018-06-08T17:46:46.711Z,13.27
2018-06-08T17:49:14.373Z,9.93
2018-06-08T17:51:41.970Z,10.90
2018-06-08T17:54:09.628Z,16.47
2018-06-08T17:56:37.268Z,17.17
2018-06-08T17:59:04.940Z,13.20
2018-06-08T18:01:32.647Z,12.77
2018-06-08T18:04:00.294Z,12.07
2018-06-08T18:06:27.983Z,15.23
2018-06-08T18:08:55.620Z,15.17
2018-06-08T18:11:23.282Z,14.60
2018-06-08T18:13:50.927Z,12.80
2018-06-08T18:16:18.606Z,14.90
2018-06-08T18:18:46.317Z,13.23
2018-06-08T18:21:13.964Z,15.57
2018-06-08T18:23:41.590Z,15.10
2018-06-08T18:26:09.272Z,14.50
2018-06-08T18:28:36.953Z,14.77
2018-06-08T18:31:04.629Z,13.80
2018-06-08T18:33:32.312Z,15.30
2018-06-08T18:35:59.975Z,13.40
2018-06-08T18:38:27.687Z,14.03
2018-06-08T18:40:55.896Z,12.07
2018-06-08T18:43:23.527Z,20.50
2018-06-08T18:45:51.211Z,14.87
2018-06-08T18:48:18.905Z,23.20
2018-06-08T18:50:46.569Z,13.90
2018-06-08T18:53:14.202Z,10.70
2018-06-08T18:55:41.887Z,16.97
2018-06-08T18:58:09.820Z,11.13
2018-06-08T19:00:37.492Z,13.80
2018-06-08T19:03:05.204Z,23.80
2018-06-08T19:05:32.909Z,13.80
2018-06-08T19:08:00.549Z,15.27
2018-06-08T19:10:28.257Z,14.33
2018-06-08T19:12:55.990Z,15.87
2018-06-08T19:15:23.684Z,14.97
2018-06-08T19:17:51.415Z,13.07
2018-06-08T19:20:19.528Z,16.67
2018-06-08T19:22:47.187Z,14.87
2018-06-08T19:25:14.855Z,14.70
2018-06-08T19:27:42.552Z,15.83
2018-06-08T19:30:10.234Z,11.93
2018-06-08T19:32:37.890Z,14.83
2018-06-08T19:35:05.709Z,18.77
2018-06-08T19:37:33.386Z,14.37
2018-06-08T19:40:01.122Z,15.17
2018-06-08T19:42:28.774Z,13.50
2018-06-08T19:44:56.418Z,16.20
2018-06-08T19:47:24.100Z,12.40
2018-06-08T19:49:51.725Z,14.07
2018-06-08T19:52:19.501Z,16.07
2018-06-08T19:54:47.449Z,13.13
2018-06-08T19:57:15.096Z,14.60
2018-06-08T19:59:42.768Z,11.07
2018-06-08T20:02:10.421Z,12.30
2018-06-08T20:04:38.042Z,12.67
2018-06-08T20:07:05.698Z,11.40
2018-06-08T20:09:33.374Z,13.27
2018-06-08T20:12:01.018Z,12.80
2018-06-08T20:14:28.679Z,11.80
2018-06-08T20:16:56.292Z,12.77
2018-06-08T20:19:23.956Z,19.10
2018-06-08T20:21:51.652Z,12.40
2018-06-08T20:24:19.300Z,14.23
2018-06-08T20:26:46.972Z,12.63
2018-06-08T20:29:14.607Z,16.40
2018-06-08T20:31:42.342Z,15.23
2018-06-08T20:34:10.032Z,17.80
2018-06-08T20:36:37.741Z,12.87
2018-06-08T20:39:06.577Z,14.43
2018-06-08T20:41:34.238Z,17.47
2018-06-08T20:44:01.870Z,15.83
2018-06-08T20:46:29.534Z,15.37
2018-06-08T20:48:57.143Z,16.47
2018-06-08T20:51:24.775Z,16.73
2018-06-08T20:53:52.770Z,13.40
2018-06-08T20:56:20.419Z,11.73
2018-06-08T20:58:48.206Z,14.63
2018-06-08T21:01:15.822Z,13.70
2018-06-08T21:03:43.464Z,12.43
2018-06-08T21:06:11.123Z,16.60
2018-06-08T21:08:38.746Z,11.67
2018-06-08T21:11:06.424Z,12.07
2018-06-08T21:13:34.132Z,15.20
2018-06-08T21:16:04.093Z,13.23
2018-06-08T21:18:32.016Z,18.20
2018-06-08T21:20:59.667Z,17.30
2018-06-08T21:23:27.310Z,11.47
2018-06-08T21:25:54.951Z,11.80
2018-06-08T21:28:22.574Z,11.87
2018-06-08T21:30:50.192Z,15.27
2018-06-08T21:33:17.844Z,14.07
2018-06-08T21:35:45.475Z,19.27
2018-06-08T21:38:13.094Z,23.67
2018-06-08T21:40:40.728Z,18.13
2018-06-08T21:43:08.333Z,23.53
2018-06-08T21:45:35.945Z,12.70
2018-06-08T21:48:03.528Z,17.03
2018-06-08T21:50:31.120Z,13.67
2018-06-08T21:52:58.720Z,14.17
2018-06-08T21:55:26.426Z,13.90
2018-06-08T21:57:53.962Z,16.07
2018-06-08T22:00:21.571Z,10.50
2018-06-08T22:02:49.138Z,15.37
2018-06-08T22:05:16.792Z,12.43
2018-06-08T22:07:44.379Z,9.87
2018-06-08T22:10:11.983Z,12.80
2018-06-08T22:12:39.589Z,11.50
2018-06-08T22:15:07.202Z,12.30
2018-06-08T22:17:34.800Z,12.83
2018-06-08T22:20:02.369Z,11.73
2018-06-08T22:22:29.957Z,10.47
2018-06-08T22:24:57.577Z,9.67
2018-06-08T22:27:25.141Z,9.03
2018-06-08T22:29:52.713Z,14.80
2018-06-08T22:32:20.298Z,12.70
2018-06-08T22:34:47.893Z,11.87
2018-06-08T22:37:15.504Z,11.87
2018-06-08T22:39:43.088Z,8.87
2018-06-08T22:42:10.694Z,12.00
2018-06-08T22:44:38.277Z,11.63
2018-06-08T22:47:05.848Z,19.87
2018-06-08T22:49:33.425Z,11.33
2018-06-08T22:52:00.997Z,11.33
2018-06-08T22:54:28.603Z,10.53
2018-06-08T22:56:56.208Z,10.60
2018-06-08T22:59:23.772Z,11.90
2018-06-08T23:01:51.362Z,12.37
2018-06-08T23:04:19.023Z,15.40
2018-06-08T23:06:46.634Z,10.13
2018-06-08T23:09:14.202Z,10.83
2018-06-08T23:11:41.812Z,9.80
2018-06-08T23:14:09.418Z,11.20
2018-06-08T23:16:36.974Z,8.50
2018-06-08T23:19:04.592Z,12.13
2018-06-08T23:21:32.169Z,7.80
2018-06-08T23:23:59.778Z,8.30
2018-06-08T23:26:27.390Z,8.33
2018-06-08T23:28:54.950Z,9.50
2018-06-08T23:31:22.546Z,10.13
2018-06-08T23:33:50.135Z,8.20
2018-06-08T23:36:17.719Z,7.17
2018-06-08T23:38:45.292Z,13.40
2018-06-08T23:41:12.886Z,11.30
2018-06-08T23:43:40.469Z,12.07
2018-06-08T23:46:08.060Z,9.20
2018-06-08T23:48:35.675Z,11.00
2018-06-08T23:51:03.264Z,11.27
2018-06-08T23:53:30.881Z,8.43
2018-06-08T23:55:58.499Z,12.20
2018-06-08T23:58:26.093Z,7.07
